createdAt,value
2022-12-05T00:01:18.806Z,4.75
2022-12-05T00:03:47.177Z,4.75
2022-12-05T00:06:15.223Z,4.73
2022-12-05T00:08:43.027Z,4.72
2022-12-05T00:11:15.439Z,4.72
2022-12-05T00:13:45.740Z,4.73
2022-12-05T00:16:16.510Z,4.77
2022-12-05T00:18:44.437Z,4.75
2022-12-05T00:21:15.184Z,4.75
2022-12-05T00:23:42.813Z,4.77
2022-12-05T00:26:11.207Z,4.77
2022-12-05T00:28:39.079Z,4.78
2022-12-05T00:31:08.734Z,4.79
2022-12-05T00:33:37.735Z,4.80
2022-12-05T00:36:07.634Z,4.81
2022-12-05T00:38:35.364Z,4.84
2022-12-05T00:41:04.292Z,4.85
2022-12-05T00:43:31.855Z,4.83
2022-12-05T00:46:02.413Z,4.85
2022-12-05T00:48:31.064Z,4.84
2022-12-05T00:51:04.023Z,4.85
2022-12-05T00:53:31.689Z,4.83
2022-12-05T00:56:03.565Z,4.79
2022-12-05T00:58:31.232Z,4.79
2022-12-05T01:00:59.368Z,4.78
2022-12-05T01:03:27.006Z,4.76
2022-12-05T01:05:54.637Z,4.74
2022-12-05T01:08:23.458Z,4.72
2022-12-05T01:10:54.979Z,4.71
2022-12-05T01:13:23.180Z,4.69
2022-12-05T01:15:50.905Z,4.67
2022-12-05T01:18:18.943Z,4.65
2022-12-05T01:20:47.142Z,4.67
2022-12-05T01:23:15.116Z,4.68
2022-12-05T01:25:46.592Z,4.71
2022-12-05T01:28:14.868Z,4.74
2022-12-05T01:30:48.483Z,4.76
2022-12-05T01:33:17.059Z,4.74
2022-12-05T01:35:45.115Z,4.73
2022-12-05T01:38:13.835Z,4.72
2022-12-05T01:40:42.303Z,4.72
2022-12-05T01:43:16.747Z,4.73
2022-12-05T01:45:46.727Z,4.71
2022-12-05T01:48:19.145Z,4.70
2022-12-05T01:50:48.589Z,4.66
2022-12-05T01:53:17.235Z,4.62
2022-12-05T01:55:46.327Z,4.60
2022-12-05T01:58:16.592Z,4.61
2022-12-05T02:00:44.868Z,4.57
2022-12-05T02:03:18.159Z,4.51
2022-12-05T02:05:49.518Z,4.50
2022-12-05T02:08:17.591Z,4.50
2022-12-05T02:10:47.386Z,4.47
2022-12-05T02:13:50.565Z,4.47
2022-12-05T02:16:28.528Z,4.46
2022-12-05T02:19:13.903Z,4.49
2022-12-05T02:22:01.393Z,4.50
2022-12-05T02:25:04.280Z,4.49
2022-12-05T02:27:58.763Z,4.49
2022-12-05T02:30:30.551Z,4.45
2022-12-05T02:33:08.125Z,4.42
2022-12-05T02:35:47.811Z,4.41
2022-12-05T02:38:25.996Z,4.42
2022-12-05T02:41:03.403Z,4.44
2022-12-05T02:43:38.128Z,4.42
2022-12-05T02:46:11.020Z,4.37
2022-12-05T02:48:39.750Z,4.35
2022-12-05T02:51:10.548Z,4.33
2022-12-05T02:53:39.963Z,4.35
2022-12-05T02:56:08.678Z,4.39
2022-12-05T02:58:43.034Z,4.43
2022-12-05T03:01:12.434Z,4.45
2022-12-05T03:03:40.080Z,4.48
2022-12-05T03:06:14.278Z,4.49
2022-12-05T03:08:46.553Z,4.49
2022-12-05T03:11:15.457Z,4.45
2022-12-05T03:13:46.710Z,4.44
2022-12-05T03:16:21.084Z,4.41
2022-12-05T03:18:52.264Z,4.38
2022-12-05T03:21:26.981Z,4.36
2022-12-05T03:23:59.245Z,4.35
2022-12-05T03:26:38.713Z,4.29
2022-12-05T03:29:25.077Z,4.27
2022-12-05T03:32:01.185Z,4.30
2022-12-05T03:34:43.316Z,4.33
2022-12-05T03:37:16.021Z,4.32
2022-12-05T03:39:49.035Z,4.29
2022-12-05T03:42:23.483Z,4.30
2022-12-05T03:44:56.147Z,4.32
2022-12-05T03:47:31.489Z,4.32
2022-12-05T03:50:04.316Z,4.32
2022-12-05T03:52:45.989Z,4.34
2022-12-05T03:55:24.465Z,4.30
2022-12-05T03:57:58.458Z,4.29
2022-12-05T04:00:27.036Z,4.26
2022-12-05T04:02:58.856Z,4.24
2022-12-05T04:05:32.289Z,4.24
2022-12-05T04:08:04.725Z,4.24
2022-12-05T04:10:48.284Z,4.26
2022-12-05T04:13:19.398Z,4.27
2022-12-05T04:16:09.538Z,4.28
2022-12-05T04:18:43.720Z,4.31
2022-12-05T04:21:30.009Z,4.31
2022-12-05T04:24:15.286Z,4.31
2022-12-05T04:26:49.318Z,4.29
2022-12-05T04:29:26.835Z,4.29
2022-12-05T04:31:59.919Z,4.28
2022-12-05T04:34:30.562Z,4.26
2022-12-05T04:37:04.365Z,4.26
2022-12-05T04:39:38.430Z,4.28
2022-12-05T04:42:08.804Z,4.30
2022-12-05T04:44:41.646Z,4.30
2022-12-05T04:47:11.235Z,4.33
2022-12-05T04:49:42.186Z,4.28
2022-12-05T04:52:12.313Z,4.25
2022-12-05T04:54:44.630Z,4.25
2022-12-05T04:57:18.612Z,4.24
2022-12-05T04:59:46.699Z,4.19
2022-12-05T05:02:19.188Z,4.15
2022-12-05T05:04:51.984Z,4.12
2022-12-05T05:07:20.223Z,4.15
2022-12-05T05:09:47.803Z,4.12
2022-12-05T05:12:19.004Z,4.11
2022-12-05T05:14:47.006Z,4.11
2022-12-05T05:17:14.606Z,4.13
2022-12-05T05:19:42.171Z,4.14
2022-12-05T05:22:11.017Z,4.13
2022-12-05T05:24:38.542Z,4.15
2022-12-05T05:27:06.051Z,4.15
2022-12-05T05:29:33.588Z,4.15
2022-12-05T05:32:01.080Z,4.15
2022-12-05T05:34:28.708Z,4.10
2022-12-05T05:36:56.222Z,4.07
2022-12-05T05:39:26.825Z,4.07
2022-12-05T05:41:54.330Z,4.05
2022-12-05T05:44:21.861Z,4.02
2022-12-05T05:46:49.435Z,4.01
2022-12-05T05:49:17.028Z,4.01
2022-12-05T05:51:44.575Z,4.01
2022-12-05T05:54:12.133Z,3.99
2022-12-05T05:56:41.110Z,3.98
2022-12-05T05:59:08.638Z,3.97
2022-12-05T06:01:36.143Z,3.99
2022-12-05T06:04:03.770Z,4.00
2022-12-05T06:06:31.379Z,4.01
2022-12-05T06:08:58.911Z,4.00
2022-12-05T06:11:28.520Z,4.00
2022-12-05T06:13:58.432Z,4.01
2022-12-05T06:16:26.484Z,4.01
2022-12-05T06:18:54.763Z,4.02
2022-12-05T06:21:23.049Z,4.00
2022-12-05T06:23:51.234Z,4.00
2022-12-05T06:26:21.597Z,3.98
2022-12-05T06:28:49.779Z,3.97
2022-12-05T06:31:20.840Z,3.98
2022-12-05T06:33:48.564Z,3.97
2022-12-05T06:36:18.086Z,3.96
2022-12-05T06:38:45.672Z,3.95
2022-12-05T06:41:16.315Z,3.93
2022-12-05T06:43:44.556Z,3.92
2022-12-05T06:46:14.336Z,3.95
2022-12-05T06:48:43.342Z,3.95
2022-12-05T06:51:11.779Z,3.96
2022-12-05T06:53:39.471Z,3.96
2022-12-05T06:56:12.359Z,3.94
2022-12-05T06:58:39.935Z,3.91
2022-12-05T07:01:30.242Z,3.94
2022-12-05T07:03:59.329Z,3.93
2022-12-05T07:06:27.412Z,3.95
2022-12-05T07:08:54.955Z,3.94
2022-12-05T07:11:22.502Z,3.94
2022-12-05T07:13:50.035Z,3.92
2022-12-05T07:16:17.600Z,3.91
2022-12-05T07:18:45.206Z,3.90
2022-12-05T07:21:16.432Z,3.90
2022-12-05T07:23:46.120Z,3.92
2022-12-05T07:26:17.397Z,3.93
2022-12-05T07:28:44.939Z,3.94
2022-12-05T07:31:14.480Z,3.92
2022-12-05T07:33:42.231Z,3.91
2022-12-05T07:36:12.217Z,3.90
2022-12-05T07:38:41.506Z,3.88
2022-12-05T07:41:13.534Z,3.90
2022-12-05T07:43:41.386Z,3.90
2022-12-05T07:46:11.285Z,3.92
2022-12-05T07:48:39.327Z,3.92
2022-12-05T07:51:08.610Z,3.93
2022-12-05T07:53:36.606Z,3.95
2022-12-05T07:56:07.553Z,3.98
2022-12-05T07:58:35.984Z,4.01
2022-12-05T08:01:07.785Z,4.02
2022-12-05T08:03:35.369Z,4.03
2022-12-05T08:06:04.383Z,4.03
2022-12-05T08:08:31.982Z,4.03
2022-12-05T08:11:05.791Z,4.04
2022-12-05T08:13:33.466Z,4.04
2022-12-05T08:16:03.622Z,4.02
2022-12-05T08:18:31.813Z,3.98
2022-12-05T08:21:03.390Z,3.93
2022-12-05T08:23:31.817Z,3.92
2022-12-05T08:26:02.948Z,3.90
2022-12-05T08:28:32.597Z,3.90
2022-12-05T08:31:05.330Z,3.92
2022-12-05T08:33:32.748Z,3.95
2022-12-05T08:36:02.207Z,3.89
2022-12-05T08:38:29.858Z,3.89
2022-12-05T08:40:57.397Z,3.89
2022-12-05T08:43:24.881Z,3.90
2022-12-05T08:45:54.513Z,3.93
2022-12-05T08:48:29.025Z,3.96
2022-12-05T08:50:57.365Z,3.98
2022-12-05T08:53:24.877Z,4.02
2022-12-05T08:55:52.638Z,4.06
2022-12-05T08:58:20.195Z,4.10
2022-12-05T09:00:47.749Z,4.12
2022-12-05T09:03:16.581Z,4.15
2022-12-05T09:05:44.108Z,4.16
2022-12-05T09:08:12.208Z,4.20
2022-12-05T09:10:39.783Z,4.21
2022-12-05T09:13:07.344Z,4.25
2022-12-05T09:15:34.926Z,4.27
2022-12-05T09:18:02.491Z,4.34
2022-12-05T09:20:31.351Z,4.40
2022-12-05T09:22:58.899Z,4.43
2022-12-05T09:25:26.413Z,4.45
2022-12-05T09:27:54.755Z,4.49
2022-12-05T09:30:22.324Z,4.52
2022-12-05T09:32:49.834Z,4.56
2022-12-05T09:35:17.386Z,4.58
2022-12-05T09:37:46.233Z,4.59
2022-12-05T09:40:17.736Z,4.61
2022-12-05T09:42:57.436Z,4.64
2022-12-05T09:45:29.913Z,4.67
2022-12-05T09:48:01.222Z,4.71
2022-12-05T09:50:31.483Z,4.74
2022-12-05T09:53:12.513Z,4.78
2022-12-05T09:55:47.070Z,4.79
2022-12-05T09:58:22.927Z,4.78
2022-12-05T10:00:53.863Z,4.80
2022-12-05T10:03:28.552Z,4.81
2022-12-05T10:06:05.883Z,4.81
2022-12-05T10:08:42.905Z,4.85
2022-12-05T10:11:15.282Z,4.88
2022-12-05T10:13:54.907Z,4.90
2022-12-05T10:16:30.379Z,4.92
2022-12-05T10:19:03.733Z,4.95
2022-12-05T10:21:34.528Z,4.99
2022-12-05T10:24:05.885Z,5.02
2022-12-05T10:26:37.671Z,5.04
2022-12-05T10:29:22.355Z,5.06
2022-12-05T10:31:51.107Z,5.07
2022-12-05T10:34:28.953Z,5.07
2022-12-05T10:37:01.790Z,5.09
2022-12-05T10:39:30.537Z,5.14
2022-12-05T10:41:58.210Z,5.14
2022-12-05T10:44:25.940Z,5.15
2022-12-05T10:46:53.589Z,5.15
2022-12-05T10:49:22.022Z,5.18
2022-12-05T10:51:50.071Z,5.23
2022-12-05T10:54:21.807Z,5.27
2022-12-05T10:56:52.388Z,5.30
2022-12-05T10:59:21.843Z,5.33
2022-12-05T11:01:53.228Z,5.38
2022-12-05T11:04:25.710Z,5.41
2022-12-05T11:06:57.571Z,5.44
2022-12-05T11:09:27.335Z,5.46
2022-12-05T11:12:04.044Z,5.47
2022-12-05T11:14:33.432Z,5.48
2022-12-05T11:17:02.891Z,5.50
2022-12-05T11:19:32.955Z,5.52
2022-12-05T11:22:01.323Z,5.52
2022-12-05T11:24:31.439Z,5.51
2022-12-05T11:27:02.045Z,5.53
2022-12-05T11:29:32.384Z,5.54
2022-12-05T11:31:59.912Z,5.55
2022-12-05T11:34:32.873Z,5.55
2022-12-05T11:37:05.905Z,5.56
2022-12-05T11:39:34.043Z,5.57
2022-12-05T11:42:17.955Z,5.60
2022-12-05T11:45:23.093Z,5.62
2022-12-05T11:48:03.562Z,5.65
2022-12-05T11:50:43.777Z,5.68
2022-12-05T11:53:40.352Z,5.67
2022-12-05T11:56:19.099Z,5.69
2022-12-05T11:59:03.261Z,5.73
2022-12-05T12:01:46.314Z,5.76
2022-12-05T12:04:21.777Z,5.82
2022-12-05T12:07:02.705Z,5.85
2022-12-05T12:09:41.308Z,5.86
2022-12-05T12:12:21.164Z,5.86
2022-12-05T12:14:59.909Z,5.84
2022-12-05T12:17:35.297Z,5.83
2022-12-05T12:20:07.751Z,5.87
2022-12-05T12:22:52.177Z,5.90
2022-12-05T12:25:27.067Z,5.92
2022-12-05T12:28:06.195Z,5.94
2022-12-05T12:30:47.895Z,5.95
2022-12-05T12:33:26.947Z,5.95
2022-12-05T12:36:02.032Z,5.95
2022-12-05T12:38:59.132Z,5.96
2022-12-05T12:41:42.858Z,5.99
2022-12-05T12:44:40.170Z,6.00
2022-12-05T12:47:18.157Z,6.02
2022-12-05T12:50:03.651Z,6.04
2022-12-05T12:52:46.047Z,6.05
2022-12-05T12:55:22.521Z,6.07
2022-12-05T12:58:01.503Z,6.08
2022-12-05T13:00:40.852Z,6.09
2022-12-05T13:03:17.339Z,6.09
2022-12-05T13:05:48.838Z,6.10
2022-12-05T13:08:25.026Z,6.13
2022-12-05T13:10:53.382Z,6.16
2022-12-05T13:13:25.172Z,6.18
2022-12-05T13:15:55.838Z,6.21
2022-12-05T13:18:26.360Z,6.19
2022-12-05T13:20:56.562Z,6.19
2022-12-05T13:23:27.673Z,6.20
2022-12-05T13:25:58.624Z,6.21
2022-12-05T13:28:31.664Z,6.24
2022-12-05T13:31:02.745Z,6.23
2022-12-05T13:33:37.908Z,6.24
2022-12-05T13:36:29.603Z,6.25
2022-12-05T13:39:17.562Z,6.24
2022-12-05T13:42:04.797Z,6.25
2022-12-05T13:44:39.309Z,6.25
2022-12-05T13:47:10.126Z,6.25
2022-12-05T13:49:45.693Z,6.27
2022-12-05T13:52:16.839Z,6.30
2022-12-05T13:54:48.320Z,6.32
2022-12-05T13:57:47.617Z,6.37
2022-12-05T14:00:27.137Z,6.40
2022-12-05T14:02:56.784Z,6.42
2022-12-05T14:05:40.022Z,6.43
2022-12-05T14:08:47.674Z,6.46
2022-12-05T14:11:15.232Z,6.49
2022-12-05T14:13:45.235Z,6.51
2022-12-05T14:16:44.257Z,6.54
2022-12-05T14:19:46.373Z,6.53
2022-12-05T14:22:50.648Z,6.55
2022-12-05T14:25:32.060Z,6.57
2022-12-05T14:28:11.788Z,6.55
2022-12-05T14:30:53.161Z,6.56
2022-12-05T14:33:23.713Z,6.56
2022-12-05T14:35:53.635Z,6.57
2022-12-05T14:38:24.785Z,6.62
2022-12-05T14:40:53.660Z,6.63
2022-12-05T14:43:27.320Z,6.63
2022-12-05T14:46:01.417Z,6.63
2022-12-05T14:48:32.746Z,6.61
2022-12-05T14:51:01.767Z,6.58
2022-12-05T14:53:38.538Z,6.56
2022-12-05T14:56:16.185Z,6.57
2022-12-05T14:58:49.783Z,6.52
2022-12-05T15:01:21.836Z,6.49
2022-12-05T15:04:09.177Z,6.51
2022-12-05T15:06:46.323Z,6.52
2022-12-05T15:09:38.516Z,6.51
2022-12-05T15:12:14.063Z,6.50
2022-12-05T15:14:47.300Z,6.49
2022-12-05T15:17:19.331Z,6.46
2022-12-05T15:19:58.391Z,6.44
2022-12-05T15:22:29.058Z,6.42
2022-12-05T15:24:56.968Z,6.39
2022-12-05T15:27:26.129Z,6.40
2022-12-05T15:29:56.468Z,6.41
2022-12-05T15:32:28.704Z,6.37
2022-12-05T15:35:02.347Z,6.36
2022-12-05T15:37:35.678Z,6.35
2022-12-05T15:40:09.794Z,6.35
2022-12-05T15:42:43.249Z,6.34
2022-12-05T15:45:21.670Z,6.35
2022-12-05T15:47:50.684Z,6.35
2022-12-05T15:50:24.904Z,6.35
2022-12-05T15:52:58.433Z,6.35
2022-12-05T15:55:30.404Z,6.36
2022-12-05T15:58:11.223Z,6.35
2022-12-05T16:00:44.011Z,6.35
2022-12-05T16:03:17.682Z,6.33
2022-12-05T16:05:52.091Z,6.31
2022-12-05T16:08:20.141Z,6.28
2022-12-05T16:10:47.873Z,6.24
2022-12-05T16:13:27.849Z,6.23
2022-12-05T16:15:56.249Z,6.22
2022-12-05T16:18:28.378Z,6.21
2022-12-05T16:20:56.359Z,6.19
2022-12-05T16:23:27.526Z,6.16
2022-12-05T16:26:10.569Z,6.16
2022-12-05T16:28:39.401Z,6.15
2022-12-05T16:31:07.774Z,6.13
2022-12-05T16:33:40.202Z,6.12
2022-12-05T16:36:11.643Z,6.09
2022-12-05T16:38:40.804Z,6.09
2022-12-05T16:41:09.229Z,6.07
2022-12-05T16:43:46.177Z,6.06
2022-12-05T16:46:42.292Z,6.05
2022-12-05T16:49:22.158Z,6.04
2022-12-05T16:51:59.654Z,6.03
2022-12-05T16:54:27.227Z,6.00
2022-12-05T16:56:55.003Z,5.95
2022-12-05T16:59:27.888Z,5.93
2022-12-05T17:01:55.524Z,5.96
2022-12-05T17:04:23.104Z,5.94
2022-12-05T17:06:50.674Z,5.91
2022-12-05T17:09:18.143Z,5.88
2022-12-05T17:11:48.078Z,5.86
2022-12-05T17:14:18.076Z,5.84
2022-12-05T17:16:47.228Z,5.80
2022-12-05T17:19:15.050Z,5.77
2022-12-05T17:21:43.629Z,5.75
2022-12-05T17:24:16.530Z,5.74
2022-12-05T17:26:44.552Z,5.72
2022-12-05T17:29:14.851Z,5.71
2022-12-05T17:31:42.453Z,5.68
2022-12-05T17:34:16.630Z,5.68
2022-12-05T17:36:44.334Z,5.62
2022-12-05T17:39:11.943Z,5.62
2022-12-05T17:41:39.513Z,5.58
2022-12-05T17:44:07.973Z,5.58
2022-12-05T17:46:35.526Z,5.61
2022-12-05T17:49:03.178Z,5.57
2022-12-05T17:51:32.333Z,5.54
2022-12-05T17:53:59.881Z,5.56
2022-12-05T17:56:27.380Z,5.56
2022-12-05T17:58:54.885Z,5.57
2022-12-05T18:01:22.462Z,5.58
2022-12-05T18:03:50.074Z,5.55
2022-12-05T18:06:18.592Z,5.55
2022-12-05T18:08:47.450Z,5.52
2022-12-05T18:11:16.534Z,5.50
2022-12-05T18:13:44.040Z,5.48
2022-12-05T18:16:12.236Z,5.47
2022-12-05T18:18:40.269Z,5.46
2022-12-05T18:21:09.519Z,5.45
2022-12-05T18:23:38.229Z,5.43
2022-12-05T18:26:12.434Z,5.45
2022-12-05T18:28:40.665Z,5.46
2022-12-05T18:31:10.705Z,5.47
2022-12-05T18:33:38.305Z,5.47
2022-12-05T18:36:29.615Z,5.46
2022-12-05T18:38:59.379Z,5.45
2022-12-05T18:41:28.655Z,5.43
2022-12-05T18:43:56.277Z,5.47
2022-12-05T18:46:24.850Z,5.46
2022-12-05T18:48:52.470Z,5.45
2022-12-05T18:51:22.083Z,5.46
2022-12-05T18:53:53.264Z,5.48
2022-12-05T18:56:24.622Z,5.48
2022-12-05T18:59:00.303Z,5.53
2022-12-05T19:01:31.336Z,5.57
2022-12-05T19:04:00.733Z,5.53
2022-12-05T19:06:30.614Z,5.53
2022-12-05T19:09:01.019Z,5.54
2022-12-05T19:11:29.946Z,5.52
2022-12-05T19:14:01.458Z,5.56
2022-12-05T19:16:37.449Z,5.57
2022-12-05T19:19:17.068Z,5.60
2022-12-05T19:21:46.771Z,5.60
2022-12-05T19:24:24.514Z,5.56
2022-12-05T19:26:55.799Z,5.56
2022-12-05T19:29:31.451Z,5.55
2022-12-05T19:32:01.395Z,5.54
2022-12-05T19:34:29.226Z,5.49
2022-12-05T19:36:57.231Z,5.46
2022-12-05T19:39:27.079Z,5.45
2022-12-05T19:41:57.451Z,5.45
2022-12-05T19:44:27.260Z,5.45
2022-12-05T19:46:55.305Z,5.45
2022-12-05T19:49:24.030Z,5.42
2022-12-05T19:51:52.620Z,5.40
2022-12-05T19:54:22.049Z,5.35
2022-12-05T19:56:49.886Z,5.33
2022-12-05T19:59:18.182Z,5.32
2022-12-05T20:01:50.946Z,5.30
2022-12-05T20:04:18.809Z,5.31
2022-12-05T20:06:48.680Z,5.27
2022-12-05T20:09:19.152Z,5.25
2022-12-05T20:11:56.049Z,5.23
2022-12-05T20:14:26.987Z,5.22
2022-12-05T20:16:57.232Z,5.22
2022-12-05T20:19:25.181Z,5.24
2022-12-05T20:21:55.107Z,5.26
2022-12-05T20:24:22.848Z,5.28
2022-12-05T20:26:50.484Z,5.30
2022-12-05T20:29:18.079Z,5.31
2022-12-05T20:31:45.808Z,5.28
2022-12-05T20:34:15.782Z,5.27
2022-12-05T20:36:44.058Z,5.26
2022-12-05T20:39:14.619Z,5.23
2022-12-05T20:41:42.370Z,5.21
2022-12-05T20:44:11.784Z,5.19
2022-12-05T20:46:39.661Z,5.21
2022-12-05T20:49:07.260Z,5.23
2022-12-05T20:51:36.285Z,5.23
2022-12-05T20:54:05.490Z,5.21
2022-12-05T20:56:34.286Z,5.21
2022-12-05T20:59:03.880Z,5.20
2022-12-05T21:01:33.647Z,5.19
2022-12-05T21:04:02.143Z,5.20
2022-12-05T21:06:31.264Z,5.22
2022-12-05T21:09:01.222Z,5.26
2022-12-05T21:11:30.773Z,5.26
2022-12-05T21:14:00.158Z,5.27
2022-12-05T21:16:28.247Z,5.25
2022-12-05T21:18:56.559Z,5.26
2022-12-05T21:21:26.958Z,5.26
2022-12-05T21:23:56.657Z,5.30
2022-12-05T21:26:27.550Z,5.31
2022-12-05T21:28:55.624Z,5.32
2022-12-05T21:31:26.268Z,5.30
2022-12-05T21:33:55.784Z,5.29
2022-12-05T21:36:25.774Z,5.30
2022-12-05T21:38:56.229Z,5.31
2022-12-05T21:41:26.360Z,5.31
2022-12-05T21:43:55.617Z,5.34
2022-12-05T21:46:24.650Z,5.34
2022-12-05T21:48:52.634Z,5.33
2022-12-05T21:51:21.011Z,5.32
2022-12-05T21:53:48.834Z,5.32
2022-12-05T21:56:23.000Z,5.29
2022-12-05T21:58:53.259Z,5.28
2022-12-05T22:01:22.910Z,5.27
2022-12-05T22:03:52.715Z,5.27
2022-12-05T22:06:20.369Z,5.29
2022-12-05T22:08:48.127Z,5.29
2022-12-05T22:11:18.082Z,5.28
2022-12-05T22:13:46.303Z,5.33
2022-12-05T22:16:15.928Z,5.34
2022-12-05T22:18:43.579Z,5.35
2022-12-05T22:21:12.990Z,5.38
2022-12-05T22:23:40.620Z,5.41
2022-12-05T22:26:11.073Z,5.41
2022-12-05T22:28:39.739Z,5.40
2022-12-05T22:31:10.283Z,5.42
2022-12-05T22:33:39.890Z,5.45
2022-12-05T22:36:09.392Z,5.46
2022-12-05T22:38:39.549Z,5.48
2022-12-05T22:41:10.000Z,5.46
2022-12-05T22:43:38.940Z,5.44
2022-12-05T22:46:07.685Z,5.42
2022-12-05T22:48:36.173Z,5.43
2022-12-05T22:51:06.612Z,5.43
2022-12-05T22:53:34.754Z,5.42
2022-12-05T22:56:04.418Z,5.42
2022-12-05T22:58:32.826Z,5.42
2022-12-05T23:01:10.243Z,5.41
2022-12-05T23:03:38.133Z,5.43
2022-12-05T23:06:11.754Z,5.40
2022-12-05T23:08:42.481Z,5.40
2022-12-05T23:11:11.003Z,5.40
2022-12-05T23:13:39.900Z,5.39
2022-12-05T23:16:09.468Z,5.37
2022-12-05T23:18:46.678Z,5.38
2022-12-05T23:21:19.603Z,5.38
2022-12-05T23:23:47.524Z,5.42
2022-12-05T23:26:16.559Z,5.38
2022-12-05T23:28:44.849Z,5.37
2022-12-05T23:31:13.762Z,5.35
2022-12-05T23:33:42.678Z,5.34
2022-12-05T23:36:11.087Z,5.32
2022-12-05T23:38:42.123Z,5.29
2022-12-05T23:41:13.409Z,5.27
2022-12-05T23:43:41.520Z,5.26
2022-12-05T23:46:09.897Z,5.22
2022-12-05T23:48:37.888Z,5.19
2022-12-05T23:51:09.422Z,5.19
2022-12-05T23:53:39.419Z,5.20
2022-12-05T23:56:11.435Z,5.18
2022-12-05T23:58:39.560Z,5.18
